createdAt,value
2017-05-04T00:00:10.158Z,1016.44
2017-05-04T00:01:20.173Z,1016.43
2017-05-04T00:02:30.137Z,1016.45
2017-05-04T00:03:40.977Z,1016.36
2017-05-04T00:04:51.534Z,1016.32
2017-05-04T00:06:01.206Z,1016.31
2017-05-04T00:07:11.191Z,1016.3
2017-05-04T00:08:21.473Z,1016.27
2017-05-04T00:09:31.443Z,1016.29
2017-05-04T00:10:41.988Z,1016.22
2017-05-04T00:11:52.274Z,1016.22
2017-05-04T00:13:02.246Z,1016.16
2017-05-04T00:14:12.528Z,1016.24
2017-05-04T00:15:22.508Z,1016.18
2017-05-04T00:16:33.064Z,1016.16
2017-05-04T00:17:43.034Z,1016.12
2017-05-04T00:18:53.315Z,1016.15
2017-05-04T00:20:03.289Z,1016.1
2017-05-04T00:21:13.266Z,1016.12
2017-05-04T00:22:23.178Z,1016.08
2017-05-04T00:23:33.459Z,1016.02
2017-05-04T00:24:43.740Z,1016.03
2017-05-04T00:25:54.029Z,1016.09
2017-05-04T00:27:04.303Z,1016.07
2017-05-04T00:28:14.513Z,1016.04
2017-05-04T00:29:24.797Z,1016.04
2017-05-04T00:30:34.801Z,1016.03
2017-05-04T00:31:45.069Z,1015.97
2017-05-04T00:32:55.338Z,1016.03
2017-05-04T00:34:05.239Z,1015.99
2017-05-04T00:35:15.522Z,1015.99
2017-05-04T00:36:25.498Z,1015.96
2017-05-04T00:37:35.768Z,1015.99
2017-05-04T00:38:45.734Z,1015.97
2017-05-04T00:39:55.953Z,1015.97
2017-05-04T00:41:06.241Z,1015.97
2017-05-04T00:42:16.531Z,1015.96
2017-05-04T00:43:26.805Z,1015.99
2017-05-04T00:44:37.102Z,1015.96
2017-05-04T00:45:47.318Z,1015.9
2017-05-04T00:46:57.523Z,1015.98
2017-05-04T00:48:07.482Z,1015.9
2017-05-04T00:49:17.765Z,1015.97
2017-05-04T00:50:28.055Z,1015.93
2017-05-04T00:51:38.585Z,1015.91
2017-05-04T00:52:48.876Z,1015.94
2017-05-04T00:53:59.163Z,1016
2017-05-04T00:55:09.126Z,1016.04
2017-05-04T00:56:19.395Z,1016
2017-05-04T00:57:29.612Z,1015.96
2017-05-04T00:58:39.895Z,1015.98
2017-05-04T00:59:49.549Z,1015.98
2017-05-04T01:00:59.818Z,1015.99
2017-05-04T01:02:10.090Z,1015.95
2017-05-04T01:03:20.667Z,1016.01
2017-05-04T01:04:30.981Z,1015.93
2017-05-04T01:05:41.255Z,1015.94
2017-05-04T01:06:51.881Z,1015.89
2017-05-04T01:08:01.543Z,1015.9
2017-05-04T01:09:12.418Z,1015.93
2017-05-04T01:10:22.387Z,1015.92
2017-05-04T01:11:32.662Z,1015.92
2017-05-04T01:12:42.628Z,1015.9
2017-05-04T01:13:53.149Z,1015.94
2017-05-04T01:15:03.366Z,1015.89
2017-05-04T01:16:13.647Z,1015.89
2017-05-04T01:17:23.934Z,1015.89
2017-05-04T01:18:34.212Z,1015.85
2017-05-04T01:19:44.491Z,1015.85
2017-05-04T01:20:55.024Z,1015.91
2017-05-04T01:22:05.310Z,1015.9
2017-05-04T01:23:15.593Z,1015.89
2017-05-04T01:24:25.867Z,1015.91
2017-05-04T01:25:35.523Z,1015.89
2017-05-04T01:26:45.745Z,1015.91
2017-05-04T01:27:55.708Z,1015.89
2017-05-04T01:29:05.991Z,1015.92
2017-05-04T01:30:15.965Z,1015.91
2017-05-04T01:31:26.242Z,1015.88
2017-05-04T01:32:36.452Z,1015.9
2017-05-04T01:33:46.729Z,1015.85
2017-05-04T01:34:57.019Z,1015.86
2017-05-04T01:36:07.304Z,1015.8
2017-05-04T01:37:17.277Z,1015.84
2017-05-04T01:38:27.829Z,1015.85
2017-05-04T01:39:37.801Z,1015.8
2017-05-04T01:40:48.083Z,1015.78
2017-05-04T01:41:58.041Z,1015.79
2017-05-04T01:43:08.327Z,1015.74
2017-05-04T01:44:18.857Z,1015.74
2017-05-04T01:45:29.131Z,1015.78
2017-05-04T01:46:39.120Z,1015.79
2017-05-04T01:47:49.086Z,1015.74
2017-05-04T01:48:59.371Z,1015.74
2017-05-04T01:50:09.912Z,1015.73
2017-05-04T01:51:20.187Z,1015.73
2017-05-04T01:52:30.472Z,1015.73
2017-05-04T01:53:40.759Z,1015.7
2017-05-04T01:54:51.041Z,1015.73
2017-05-04T01:56:01.577Z,1015.74
2017-05-04T01:57:11.861Z,1015.73
2017-05-04T01:58:21.511Z,1015.73
2017-05-04T01:59:31.487Z,1015.68
2017-05-04T02:00:41.462Z,1015.66
2017-05-04T02:01:51.999Z,1015.63
2017-05-04T02:03:02.273Z,1015.59
2017-05-04T02:04:12.250Z,1015.61
2017-05-04T02:05:22.217Z,1015.57
2017-05-04T02:06:32.493Z,1015.58
2017-05-04T02:07:43.031Z,1015.61
2017-05-04T02:08:53.313Z,1015.58
2017-05-04T02:10:03.291Z,1015.57
2017-05-04T02:11:12.946Z,1015.6
2017-05-04T02:12:23.233Z,1015.63
2017-05-04T02:13:33.757Z,1015.59
2017-05-04T02:14:44.041Z,1015.57
2017-05-04T02:15:54.329Z,1015.6
2017-05-04T02:17:04.760Z,1015.64
2017-05-04T02:18:14.417Z,1015.56
2017-05-04T02:19:24.312Z,1015.52
2017-05-04T02:20:34.603Z,1015.55
2017-05-04T02:21:44.570Z,1015.56
2017-05-04T02:22:54.854Z,1015.54
2017-05-04T02:24:05.135Z,1015.6
2017-05-04T02:25:15.670Z,1015.55
2017-05-04T02:26:25.947Z,1015.59
2017-05-04T02:27:36.247Z,1015.58
2017-05-04T02:28:46.531Z,1015.56
2017-05-04T02:29:56.811Z,1015.54
2017-05-04T02:31:07.346Z,1015.54
2017-05-04T02:32:17.639Z,1015.53
2017-05-04T02:33:27.605Z,1015.52
2017-05-04T02:34:37.889Z,1015.52
2017-05-04T02:35:48.172Z,1015.48
2017-05-04T02:36:58.704Z,1015.47
2017-05-04T02:38:09.024Z,1015.44
2017-05-04T02:39:18.998Z,1015.4
2017-05-04T02:40:29.275Z,1015.38
2017-05-04T02:41:39.552Z,1015.37
2017-05-04T02:42:50.078Z,1015.4
2017-05-04T02:44:00.041Z,1015.38
2017-05-04T02:45:10.333Z,1015.36
2017-05-04T02:46:20.605Z,1015.31
2017-05-04T02:47:30.883Z,1015.31
2017-05-04T02:48:41.428Z,1015.3
2017-05-04T02:49:51.732Z,1015.3
2017-05-04T02:51:01.593Z,1015.33
2017-05-04T02:52:11.867Z,1015.33
2017-05-04T02:53:21.839Z,1015.33
2017-05-04T02:54:32.063Z,1015.29
2017-05-04T02:55:42.350Z,1015.3
2017-05-04T02:56:52.324Z,1015.29
2017-05-04T02:58:02.289Z,1015.35
2017-05-04T02:59:12.570Z,1015.33
2017-05-04T03:00:23.096Z,1015.3
2017-05-04T03:01:33.379Z,1015.3
2017-05-04T03:02:43.358Z,1015.3
2017-05-04T03:03:53.629Z,1015.3
2017-05-04T03:05:03.918Z,1015.33
2017-05-04T03:06:14.516Z,1015.31
2017-05-04T03:07:24.799Z,1015.27
2017-05-04T03:08:35.074Z,1015.23
2017-05-04T03:09:45.043Z,1015.25
2017-05-04T03:10:55.012Z,1015.26
2017-05-04T03:12:05.536Z,1015.23
2017-05-04T03:13:15.833Z,1015.22
2017-05-04T03:14:25.798Z,1015.2
2017-05-04T03:15:36.081Z,1015.17
2017-05-04T03:16:46.361Z,1015.19
2017-05-04T03:17:56.282Z,1015.21
2017-05-04T03:19:06.259Z,1015.17
2017-05-04T03:20:16.235Z,1015.2
2017-05-04T03:21:26.519Z,1015.23
2017-05-04T03:22:36.800Z,1015.2
2017-05-04T03:23:47.344Z,1015.2
2017-05-04T03:24:57.622Z,1015.21
2017-05-04T03:26:07.312Z,1015.18
2017-05-04T03:27:17.594Z,1015.22
2017-05-04T03:28:27.868Z,1015.21
2017-05-04T03:29:38.399Z,1015.16
2017-05-04T03:30:48.366Z,1015.19
2017-05-04T03:31:58.330Z,1015.2
2017-05-04T03:33:08.316Z,1015.21
2017-05-04T03:34:18.606Z,1015.22
2017-05-04T03:35:29.131Z,1015.18
2017-05-04T03:36:39.402Z,1015.18
2017-05-04T03:37:49.380Z,1015.15
2017-05-04T03:38:59.657Z,1015.18
2017-05-04T03:40:09.313Z,1015.21
2017-05-04T03:41:19.855Z,1015.19
2017-05-04T03:42:29.514Z,1015.21
2017-05-04T03:43:39.471Z,1015.22
2017-05-04T03:44:49.753Z,1015.2
2017-05-04T03:45:59.713Z,1015.19
2017-05-04T03:47:10.245Z,1015.24
2017-05-04T03:48:20.517Z,1015.18
2017-05-04T03:49:30.484Z,1015.19
2017-05-04T03:50:40.452Z,1015.16
2017-05-04T03:51:50.724Z,1015.17
2017-05-04T03:53:01.304Z,1015.17
2017-05-04T03:54:11.591Z,1015.11
2017-05-04T03:55:21.587Z,1015.16
2017-05-04T03:56:31.883Z,1015.13
2017-05-04T03:57:42.158Z,1015.12
2017-05-04T03:58:52.383Z,1015.14
2017-05-04T04:00:02.349Z,1015.13
2017-05-04T04:01:12.622Z,1015.22
2017-05-04T04:02:22.907Z,1015.2
2017-05-04T04:03:33.179Z,1015.24
2017-05-04T04:04:43.712Z,1015.21
2017-05-04T04:05:53.988Z,1015.21
2017-05-04T04:07:04.283Z,1015.2
2017-05-04T04:08:14.560Z,1015.15
2017-05-04T04:09:24.836Z,1015.17
2017-05-04T04:10:35.100Z,1015.13
2017-05-04T04:11:44.754Z,1015.11
2017-05-04T04:12:55.036Z,1015.1
2017-05-04T04:14:05.311Z,1015.09
2017-05-04T04:15:15.588Z,1015.1
2017-05-04T04:16:25.810Z,1015.11
2017-05-04T04:17:36.093Z,1015.11
2017-05-04T04:18:46.374Z,1015.1
2017-05-04T04:19:56.370Z,1015.11
2017-05-04T04:21:06.351Z,1015.12
2017-05-04T04:22:16.881Z,1015.1
2017-05-04T04:23:26.848Z,1015.17
2017-05-04T04:24:37.132Z,1015.15
2017-05-04T04:25:47.100Z,1015.13
2017-05-04T04:26:57.389Z,1015.14
2017-05-04T04:28:07.917Z,1015.18
2017-05-04T04:29:17.891Z,1015.13
2017-05-04T04:30:28.170Z,1015.14
2017-05-04T04:31:38.143Z,1015.13
2017-05-04T04:32:48.108Z,1015.14
2017-05-04T04:33:58.320Z,1015.08
2017-05-04T04:35:08.615Z,1015.1
2017-05-04T04:36:18.914Z,1015.07
2017-05-04T04:37:28.895Z,1015.11
2017-05-04T04:38:39.207Z,1015.09
2017-05-04T04:39:49.756Z,1015.14
2017-05-04T04:41:00.160Z,1015.06
2017-05-04T04:42:10.157Z,1015.09
2017-05-04T04:43:20.447Z,1015.17
2017-05-04T04:44:30.726Z,1015.12
2017-05-04T04:45:40.650Z,1015.12
2017-05-04T04:46:50.919Z,1015.15
2017-05-04T04:48:01.202Z,1015.15
2017-05-04T04:49:11.160Z,1015.14
2017-05-04T04:50:21.131Z,1015.15
2017-05-04T04:51:31.660Z,1015.16
2017-05-04T04:52:41.621Z,1015.14
2017-05-04T04:53:51.897Z,1015.15
2017-05-04T04:55:02.172Z,1015.13
2017-05-04T04:56:12.450Z,1015.16
2017-05-04T04:57:22.979Z,1015.16
2017-05-04T04:58:33.256Z,1015.15
2017-05-04T04:59:43.531Z,1015.17
2017-05-04T05:00:53.825Z,1015.12
2017-05-04T05:02:04.117Z,1015.14
2017-05-04T05:03:14.636Z,1015.17
2017-05-04T05:04:24.916Z,1015.12
2017-05-04T05:05:34.887Z,1015.12
2017-05-04T05:06:45.182Z,1015.13
2017-05-04T05:07:55.451Z,1015.12
2017-05-04T05:09:05.967Z,1015.11
2017-05-04T05:10:16.247Z,1015.09
2017-05-04T05:11:26.541Z,1015.04
2017-05-04T05:12:36.199Z,1015.05
2017-05-04T05:13:46.479Z,1015.06
2017-05-04T05:14:56.705Z,1015.06
2017-05-04T05:16:06.990Z,1015.03
2017-05-04T05:17:17.265Z,1014.99
2017-05-04T05:18:27.234Z,1014.95
2017-05-04T05:19:37.521Z,1014.93
2017-05-04T05:20:47.754Z,1014.96
2017-05-04T05:21:58.033Z,1014.93
2017-05-04T05:23:08.001Z,1014.88
2017-05-04T05:24:18.284Z,1014.91
2017-05-04T05:25:28.560Z,1014.92
2017-05-04T05:26:38.777Z,1014.88
2017-05-04T05:27:49.053Z,1014.96
2017-05-04T05:28:59.028Z,1014.96
2017-05-04T05:30:09.005Z,1014.94
2017-05-04T05:31:19.288Z,1015.01
2017-05-04T05:32:29.876Z,1014.95
2017-05-04T05:33:39.552Z,1014.95
2017-05-04T05:34:49.527Z,1014.92
2017-05-04T05:35:59.802Z,1014.95
2017-05-04T05:37:10.078Z,1014.95
2017-05-04T05:38:20.844Z,1015.04
2017-05-04T05:39:31.121Z,1015
2017-05-04T05:40:41.090Z,1015.07
2017-05-04T05:41:51.060Z,1015.02
2017-05-04T05:43:01.335Z,1015.03
2017-05-04T05:44:11.866Z,1015.04
2017-05-04T05:45:22.149Z,1015.03
2017-05-04T05:46:32.446Z,1015
2017-05-04T05:47:42.731Z,1014.98
2017-05-04T05:48:53.012Z,1014.99
2017-05-04T05:50:03.546Z,1014.95
2017-05-04T05:51:13.834Z,1014.98
2017-05-04T05:52:24.224Z,1014.99
2017-05-04T05:53:34.193Z,1014.97
2017-05-04T05:54:44.177Z,1014.95
2017-05-04T05:55:54.397Z,1014.99
2017-05-04T05:57:04.369Z,1014.97
2017-05-04T05:58:14.668Z,1014.92
2017-05-04T05:59:24.953Z,1014.91
2017-05-04T06:00:34.933Z,1014.94
2017-05-04T06:01:45.536Z,1014.9
2017-05-04T06:02:55.856Z,1014.93
2017-05-04T06:04:06.162Z,1014.9
2017-05-04T06:05:16.184Z,1014.88
2017-05-04T06:06:26.159Z,1014.86
2017-05-04T06:07:36.706Z,1014.89
2017-05-04T06:08:46.996Z,1014.87
2017-05-04T06:09:56.975Z,1014.91
2017-05-04T06:11:06.982Z,1014.93
2017-05-04T06:12:16.963Z,1014.9
2017-05-04T06:13:27.529Z,1014.89
2017-05-04T06:14:37.848Z,1014.88
2017-05-04T06:15:48.139Z,1014.89
2017-05-04T06:16:58.426Z,1014.87
2017-05-04T06:18:08.416Z,1014.87
2017-05-04T06:19:18.638Z,1014.84
2017-05-04T06:20:28.637Z,1014.85
2017-05-04T06:21:38.614Z,1014.87
2017-05-04T06:22:48.293Z,1014.86
2017-05-04T06:23:58.601Z,1014.86
2017-05-04T06:25:09.197Z,1014.86
2017-05-04T06:26:19.505Z,1014.85
2017-05-04T06:27:29.486Z,1014.83
2017-05-04T06:28:40.043Z,1014.85
2017-05-04T06:29:50.375Z,1014.85
2017-05-04T06:31:00.960Z,1014.85
2017-05-04T06:32:11.296Z,1014.83
2017-05-04T06:33:21.809Z,1014.83
2017-05-04T06:34:31.800Z,1014.82
2017-05-04T06:35:41.465Z,1014.77
2017-05-04T06:36:52.000Z,1014.84
2017-05-04T06:38:02.279Z,1014.82
2017-05-04T06:39:12.254Z,1014.84
2017-05-04T06:40:22.240Z,1014.84
2017-05-04T06:41:32.550Z,1014.79
2017-05-04T06:42:43.090Z,1014.8
2017-05-04T06:43:53.073Z,1014.81
2017-05-04T06:45:02.767Z,1014.77
2017-05-04T06:46:13.049Z,1014.77
2017-05-04T06:47:23.024Z,1014.77
2017-05-04T06:48:33.556Z,1014.79
2017-05-04T06:49:43.840Z,1014.75
2017-05-04T06:50:54.140Z,1014.79
2017-05-04T06:52:04.429Z,1014.75
2017-05-04T06:53:14.745Z,1014.79
2017-05-04T06:54:25.300Z,1014.78
2017-05-04T06:55:35.281Z,1014.77
2017-05-04T06:56:45.566Z,1014.79
2017-05-04T06:57:55.545Z,1014.8
2017-05-04T06:59:05.534Z,1014.77
2017-05-04T07:00:15.759Z,1014.73
2017-05-04T07:01:25.112Z,1014.79
2017-05-04T07:02:35.174Z,1014.74
2017-05-04T07:03:45.384Z,1014.76
2017-05-04T07:04:55.379Z,1014.78
2017-05-04T07:06:06.015Z,1014.77
2017-05-04T07:07:16.302Z,1014.76
2017-05-04T07:08:26.596Z,1014.8
2017-05-04T07:09:36.909Z,1014.81
2017-05-04T07:10:46.895Z,1014.78
2017-05-04T07:11:57.525Z,1014.8
2017-05-04T07:13:07.809Z,1014.81
2017-05-04T07:14:18.107Z,1014.8
2017-05-04T07:15:28.399Z,1014.83
2017-05-04T07:16:38.389Z,1014.79
2017-05-04T07:17:48.969Z,1014.84
2017-05-04T07:18:59.551Z,1014.83
2017-05-04T07:20:09.561Z,1014.79
2017-05-04T07:21:19.552Z,1014.77
2017-05-04T07:22:29.887Z,1014.79
2017-05-04T07:23:40.150Z,1014.83
2017-05-04T07:24:50.436Z,1014.83
2017-05-04T07:26:00.099Z,1014.87
2017-05-04T07:27:10.067Z,1014.87
2017-05-04T07:28:20.348Z,1014.84
2017-05-04T07:29:30.896Z,1014.86
2017-05-04T07:30:41.176Z,1014.87
2017-05-04T07:31:51.458Z,1014.87
2017-05-04T07:33:01.771Z,1014.83
2017-05-04T07:34:12.055Z,1014.84
2017-05-04T07:35:22.575Z,1014.84
2017-05-04T07:36:32.550Z,1014.85
2017-05-04T07:37:42.540Z,1014.82
2017-05-04T07:38:52.824Z,1014.85
2017-05-04T07:40:02.796Z,1014.77
2017-05-04T07:41:13.338Z,1014.82
2017-05-04T07:42:23.619Z,1014.83
2017-05-04T07:43:33.918Z,1014.83
2017-05-04T07:44:43.903Z,1014.81
2017-05-04T07:45:53.872Z,1014.83
2017-05-04T07:47:04.465Z,1014.81
2017-05-04T07:48:14.758Z,1014.82
2017-05-04T07:49:25.081Z,1014.81
2017-05-04T07:50:35.364Z,1014.84
2017-05-04T07:51:45.656Z,1014.78
2017-05-04T07:52:56.201Z,1014.83
2017-05-04T07:54:06.502Z,1014.83
2017-05-04T07:55:16.795Z,1014.8
2017-05-04T07:56:27.085Z,1014.82
2017-05-04T07:57:37.379Z,1014.78
2017-05-04T07:58:47.618Z,1014.8
2017-05-04T07:59:57.943Z,1014.76
2017-05-04T08:01:08.126Z,1014.82
2017-05-04T08:02:18.124Z,1014.77
2017-05-04T08:03:28.101Z,1014.76
2017-05-04T08:04:38.655Z,1014.78
2017-05-04T08:05:48.999Z,1014.73
2017-05-04T08:06:59.290Z,1014.72
2017-05-04T08:08:09.297Z,1014.69
2017-05-04T08:09:18.970Z,1014.68
2017-05-04T08:10:29.525Z,1014.63
2017-05-04T08:11:39.817Z,1014.6
2017-05-04T08:12:49.793Z,1014.58
2017-05-04T08:14:00.123Z,1014.56
2017-05-04T08:15:10.414Z,1014.52
2017-05-04T08:16:20.961Z,1014.55
2017-05-04T08:17:31.254Z,1014.57
2017-05-04T08:18:41.795Z,1014.54
2017-05-04T08:19:52.098Z,1014.62
2017-05-04T08:21:02.391Z,1014.54
2017-05-04T08:22:12.664Z,1014.57
2017-05-04T08:23:22.958Z,1014.59
2017-05-04T08:24:32.942Z,1014.59
2017-05-04T08:25:42.917Z,1014.58
2017-05-04T08:26:52.900Z,1014.59
2017-05-04T08:28:02.816Z,1014.62
2017-05-04T08:29:13.110Z,1014.56
2017-05-04T08:30:23.412Z,1014.54
2017-05-04T08:31:33.716Z,1014.55
2017-05-04T08:32:43.393Z,1014.52
2017-05-04T08:33:53.626Z,1014.53
2017-05-04T08:35:03.592Z,1014.5
2017-05-04T08:36:13.943Z,1014.44
2017-05-04T08:37:24.225Z,1014.43
2017-05-04T08:38:34.216Z,1014.45
2017-05-04T08:39:44.758Z,1014.43
2017-05-04T08:40:55.063Z,1014.41
2017-05-04T08:42:05.350Z,1014.4
2017-05-04T08:43:15.639Z,1014.42
2017-05-04T08:44:25.929Z,1014.41
2017-05-04T08:45:36.489Z,1014.44
2017-05-04T08:46:46.876Z,1014.45
2017-05-04T08:47:57.190Z,1014.44
2017-05-04T08:49:07.487Z,1014.38
2017-05-04T08:50:17.788Z,1014.38
2017-05-04T08:51:28.390Z,1014.36
2017-05-04T08:52:38.716Z,1014.34
2017-05-04T08:53:49.013Z,1014.36
2017-05-04T08:54:59.329Z,1014.31
2017-05-04T08:56:09.622Z,1014.33
2017-05-04T08:57:19.861Z,1014.32
2017-05-04T08:58:29.841Z,1014.32
2017-05-04T08:59:39.834Z,1014.36
2017-05-04T09:00:50.138Z,1014.35
2017-05-04T09:02:00.425Z,1014.33
2017-05-04T09:03:10.963Z,1014.32
2017-05-04T09:04:21.265Z,1014.35
2017-05-04T09:05:31.249Z,1014.36
2017-05-04T09:06:41.533Z,1014.33
2017-05-04T09:07:51.824Z,1014.34
2017-05-04T09:09:02.423Z,1014.35
2017-05-04T09:10:12.389Z,1014.36
2017-05-04T09:11:22.356Z,1014.38
2017-05-04T09:12:32.332Z,1014.35
2017-05-04T09:13:42.795Z,1014.38
2017-05-04T09:14:53.360Z,1014.35
2017-05-04T09:16:03.333Z,1014.36
2017-05-04T09:17:13.612Z,1014.39
2017-05-04T09:18:23.889Z,1014.4
2017-05-04T09:19:34.181Z,1014.41
2017-05-04T09:20:44.758Z,1014.38
2017-05-04T09:21:54.735Z,1014.4
2017-05-04T09:23:05.022Z,1014.39
2017-05-04T09:24:15.306Z,1014.39
2017-05-04T09:25:25.593Z,1014.41
2017-05-04T09:26:35.840Z,1014.37
2017-05-04T09:27:46.143Z,1014.39
2017-05-04T09:28:56.465Z,1014.35
2017-05-04T09:30:06.459Z,1014.38
2017-05-04T09:31:16.769Z,1014.34
2017-05-04T09:32:27.311Z,1014.37
2017-05-04T09:33:37.296Z,1014.32
2017-05-04T09:34:47.617Z,1014.31
2017-05-04T09:35:57.582Z,1014.35
2017-05-04T09:37:07.880Z,1014.35
2017-05-04T09:38:18.439Z,1014.35
2017-05-04T09:39:28.742Z,1014.34
2017-05-04T09:40:39.030Z,1014.36
2017-05-04T09:41:49.342Z,1014.3
2017-05-04T09:42:59.657Z,1014.33
2017-05-04T09:44:09.948Z,1014.3
2017-05-04T09:45:19.658Z,1014.29
2017-05-04T09:46:29.982Z,1014.32
2017-05-04T09:47:40.278Z,1014.3
2017-05-04T09:48:50.563Z,1014.29
2017-05-04T09:50:00.819Z,1014.24
2017-05-04T09:51:11.105Z,1014.28
2017-05-04T09:52:21.401Z,1014.27
2017-05-04T09:53:31.687Z,1014.23
2017-05-04T09:54:41.669Z,1014.26
2017-05-04T09:55:52.235Z,1014.2
2017-05-04T09:57:02.520Z,1014.22
2017-05-04T09:58:12.808Z,1014.21
2017-05-04T09:59:23.104Z,1014.23
2017-05-04T10:00:33.417Z,1014.23
2017-05-04T10:01:43.645Z,1014.18
2017-05-04T10:02:53.937Z,1014.21
2017-05-04T10:04:03.906Z,1014.22
2017-05-04T10:05:13.876Z,1014.21
2017-05-04T10:06:24.169Z,1014.23
2017-05-04T10:07:34.392Z,1014.19
2017-05-04T10:08:44.369Z,1014.15
2017-05-04T10:09:54.046Z,1014.15
2017-05-04T10:11:04.356Z,1014.12
2017-05-04T10:12:14.635Z,1014.16
2017-05-04T10:13:25.183Z,1014.16
2017-05-04T10:14:35.153Z,1014.15
2017-05-04T10:15:45.443Z,1014.14
2017-05-04T10:16:55.722Z,1014.13
2017-05-04T10:18:06.023Z,1014.18
2017-05-04T10:19:16.258Z,1014.12
2017-05-04T10:20:26.568Z,1014.09
2017-05-04T10:21:36.868Z,1014.12
2017-05-04T10:22:47.184Z,1014.08
2017-05-04T10:23:57.475Z,1014.08
2017-05-04T10:25:08.028Z,1014.1
2017-05-04T10:26:18.314Z,1014.06
2017-05-04T10:27:28.287Z,1014.08
2017-05-04T10:28:37.639Z,1014.08
2017-05-04T10:29:47.612Z,1014.05
2017-05-04T10:30:57.839Z,1014.06
2017-05-04T10:32:08.155Z,1014.04
2017-05-04T10:33:18.455Z,1014.04
2017-05-04T10:34:28.429Z,1014.06
2017-05-04T10:35:38.410Z,1014.1
2017-05-04T10:36:48.986Z,1014.06
2017-05-04T10:37:59.293Z,1014.06
2017-05-04T10:39:09.573Z,1014.03
2017-05-04T10:40:19.859Z,1014.01
2017-05-04T10:41:29.529Z,1014.02
2017-05-04T10:42:39.775Z,1014.02
2017-05-04T10:43:49.747Z,1014
2017-05-04T10:44:59.771Z,1014.01
2017-05-04T10:46:09.435Z,1014.03
2017-05-04T10:47:19.410Z,1014.01
2017-05-04T10:48:29.640Z,1014.02
2017-05-04T10:49:39.929Z,1014.03
2017-05-04T10:50:50.254Z,1014.01
2017-05-04T10:52:00.529Z,1014.01
2017-05-04T10:53:10.494Z,1014.01
2017-05-04T10:54:21.036Z,1014
2017-05-04T10:55:31.304Z,1013.94
2017-05-04T10:56:41.617Z,1013.96
2017-05-04T10:57:51.916Z,1013.94
2017-05-04T10:59:01.887Z,1013.94
2017-05-04T11:00:11.849Z,1013.91
2017-05-04T11:01:21.848Z,1013.93
2017-05-04T11:02:32.135Z,1013.91
2017-05-04T11:03:42.461Z,1013.89
2017-05-04T11:04:52.780Z,1013.87
2017-05-04T11:06:03.317Z,1013.91
2017-05-04T11:07:13.351Z,1013.87
2017-05-04T11:08:23.631Z,1013.88
2017-05-04T11:09:33.915Z,1013.88
2017-05-04T11:10:43.879Z,1013.88
2017-05-04T11:11:54.421Z,1013.88
2017-05-04T11:13:04.702Z,1013.87
2017-05-04T11:14:14.361Z,1013.83
2017-05-04T11:15:24.024Z,1013.87
2017-05-04T11:16:34.314Z,1013.81
2017-05-04T11:17:44.860Z,1013.81
2017-05-04T11:18:55.138Z,1013.83
2017-05-04T11:20:05.420Z,1013.86
2017-05-04T11:21:15.707Z,1013.83
2017-05-04T11:22:25.361Z,1013.77
2017-05-04T11:23:35.584Z,1013.78
2017-05-04T11:24:45.881Z,1013.79
2017-05-04T11:25:56.167Z,1013.81
2017-05-04T11:27:06.456Z,1013.75
2017-05-04T11:28:16.743Z,1013.71
2017-05-04T11:29:27.273Z,1013.69
2017-05-04T11:30:37.246Z,1013.7
2017-05-04T11:31:47.538Z,1013.69
2017-05-04T11:32:57.826Z,1013.67
2017-05-04T11:34:08.111Z,1013.67
2017-05-04T11:35:18.383Z,1013.69
2017-05-04T11:36:28.672Z,1013.65
2017-05-04T11:37:38.017Z,1013.67
2017-05-04T11:38:47.697Z,1013.58
2017-05-04T11:39:57.676Z,1013.7
2017-05-04T11:41:07.908Z,1013.65
2017-05-04T11:42:17.882Z,1013.68
2017-05-04T11:43:27.859Z,1013.68
2017-05-04T11:44:38.182Z,1013.66
2017-05-04T11:45:48.471Z,1013.68
2017-05-04T11:46:58.711Z,1013.69
2017-05-04T11:48:09.044Z,1013.68
2017-05-04T11:49:19.358Z,1013.69
2017-05-04T11:50:29.638Z,1013.64
2017-05-04T11:51:39.616Z,1013.59
2017-05-04T11:52:50.205Z,1013.6
2017-05-04T11:54:00.499Z,1013.59
2017-05-04T11:55:10.790Z,1013.58
2017-05-04T11:56:21.080Z,1013.56
2017-05-04T11:57:31.052Z,1013.56
2017-05-04T11:58:41.070Z,1013.52
2017-05-04T11:59:51.363Z,1013.56
2017-05-04T12:01:01.649Z,1013.52
2017-05-04T12:02:11.948Z,1013.51
2017-05-04T12:03:22.240Z,1013.52
2017-05-04T12:04:32.494Z,1013.56
2017-05-04T12:05:42.784Z,1013.49
2017-05-04T12:06:53.065Z,1013.49
2017-05-04T12:08:02.766Z,1013.5
2017-05-04T12:09:13.065Z,1013.5
2017-05-04T12:10:23.672Z,1013.5
2017-05-04T12:11:33.953Z,1013.53
2017-05-04T12:12:44.235Z,1013.54
2017-05-04T12:13:54.560Z,1013.46
2017-05-04T12:15:04.845Z,1013.53
2017-05-04T12:16:15.393Z,1013.5
2017-05-04T12:17:25.696Z,1013.57
2017-05-04T12:18:35.981Z,1013.54
2017-05-04T12:19:46.304Z,1013.48
2017-05-04T12:20:56.588Z,1013.5
2017-05-04T12:22:07.117Z,1013.5
2017-05-04T12:23:17.102Z,1013.52
2017-05-04T12:24:27.405Z,1013.5
2017-05-04T12:25:37.377Z,1013.51
2017-05-04T12:26:47.670Z,1013.49
2017-05-04T12:27:57.903Z,1013.51
2017-05-04T12:29:07.892Z,1013.49
2017-05-04T12:30:18.176Z,1013.46
2017-05-04T12:31:28.144Z,1013.47
2017-05-04T12:32:38.114Z,1013.46
2017-05-04T12:33:48.675Z,1013.49
2017-05-04T12:34:58.964Z,1013.43
2017-05-04T12:36:09.248Z,1013.46
2017-05-04T12:37:19.535Z,1013.41
2017-05-04T12:38:29.512Z,1013.41
2017-05-04T12:39:40.086Z,1013.39
2017-05-04T12:40:49.755Z,1013.33
2017-05-04T12:41:59.740Z,1013.29
2017-05-04T12:43:09.926Z,1013.28
2017-05-04T12:44:20.228Z,1013.27
2017-05-04T12:45:30.475Z,1013.18
2017-05-04T12:46:40.454Z,1013.22
2017-05-04T12:47:50.428Z,1013.2
2017-05-04T12:49:00.401Z,1013.19
2017-05-04T12:50:10.705Z,1013.18
2017-05-04T12:51:20.989Z,1013.23
2017-05-04T12:52:30.966Z,1013.16
2017-05-04T12:53:41.269Z,1013.22
2017-05-04T12:54:51.237Z,1013.16
2017-05-04T12:56:01.216Z,1013.14
2017-05-04T12:57:11.489Z,1013.13
2017-05-04T12:58:21.775Z,1013.06
2017-05-04T12:59:31.773Z,1013.07
2017-05-04T13:00:42.059Z,1013.06
2017-05-04T13:01:52.055Z,1013.08
2017-05-04T13:03:02.611Z,1013.05
2017-05-04T13:04:12.891Z,1013.05
2017-05-04T13:05:23.177Z,1013.06
2017-05-04T13:06:33.463Z,1013.06
2017-05-04T13:07:43.763Z,1013.06
2017-05-04T13:08:53.989Z,1013.09
2017-05-04T13:10:03.972Z,1013.02
2017-05-04T13:11:14.273Z,1013
2017-05-04T13:12:24.571Z,1013.03
2017-05-04T13:13:34.865Z,1012.99
2017-05-04T13:14:45.411Z,1012.97
2017-05-04T13:15:55.689Z,1012.93
2017-05-04T13:17:05.986Z,1012.98
2017-05-04T13:18:15.958Z,1012.98
2017-05-04T13:19:26.231Z,1012.97
2017-05-04T13:20:36.757Z,1013
2017-05-04T13:21:46.733Z,1012.99
2017-05-04T13:22:57.014Z,1013
2017-05-04T13:24:06.983Z,1012.97
2017-05-04T13:25:17.264Z,1012.94
2017-05-04T13:26:27.826Z,1012.96
2017-05-04T13:27:38.118Z,1012.96
2017-05-04T13:28:48.402Z,1012.95
2017-05-04T13:29:58.709Z,1012.93
2017-05-04T13:31:09.024Z,1012.96
2017-05-04T13:32:19.562Z,1012.98
2017-05-04T13:33:29.841Z,1012.99
2017-05-04T13:34:39.809Z,1012.97
2017-05-04T13:35:49.785Z,1012.95
2017-05-04T13:36:59.775Z,1012.99
2017-05-04T13:38:09.997Z,1012.93
2017-05-04T13:39:20.277Z,1012.93
2017-05-04T13:40:30.566Z,1012.93
2017-05-04T13:41:40.847Z,1012.91
2017-05-04T13:42:51.130Z,1012.92
2017-05-04T13:44:01.375Z,1012.93
2017-05-04T13:45:11.660Z,1012.89
2017-05-04T13:46:21.957Z,1012.88
2017-05-04T13:47:32.257Z,1012.96
2017-05-04T13:48:42.551Z,1012.93
2017-05-04T13:49:53.099Z,1012.93
2017-05-04T13:51:03.371Z,1012.9
2017-05-04T13:52:13.670Z,1012.93
2017-05-04T13:53:23.960Z,1012.93
2017-05-04T13:54:34.242Z,1012.91
2017-05-04T13:55:44.781Z,1012.88
2017-05-04T13:56:55.065Z,1012.92
2017-05-04T13:58:05.338Z,1012.92
2017-05-04T13:59:15.329Z,1012.86
2017-05-04T14:00:25.616Z,1012.85
2017-05-04T14:01:36.199Z,1012.84
2017-05-04T14:02:46.203Z,1012.8
2017-05-04T14:03:56.495Z,1012.8
2017-05-04T14:05:06.162Z,1012.78
2017-05-04T14:06:16.134Z,1012.79
2017-05-04T14:07:26.665Z,1012.75
2017-05-04T14:08:36.961Z,1012.68
2017-05-04T14:09:46.947Z,1012.71
2017-05-04T14:10:57.249Z,1012.7
2017-05-04T14:12:06.915Z,1012.71